sensor_id;sensor_type;location;lat;lon;timestamp;pressure;altitude;pressure_sealevel;temperature;humidity
73692;BME280;61996;49.910;35.562;2024-01-15T00:02:46;97890.09;;;17.26;40.19
73692;BME280;61996;49.910;35.562;2024-01-15T00:05:49;97873.66;;;17.22;40.05
73692;BME280;61996;49.910;35.562;2024-01-15T00:08:54;97890.09;;;17.26;39.11
73692;BME280;61996;49.910;35.562;2024-01-15T00:11:56;97895.25;;;17.27;39.55
73692;BME280;61996;49.910;35.562;2024-01-15T00:14:59;97884.44;;;17.29;40.45
73692;BME280;61996;49.910;35.562;2024-01-15T00:18:02;97887.75;;;17.31;39.88
73692;BME280;61996;49.910;35.562;2024-01-15T00:21:05;97879.78;;;17.31;39.83
73692;BME280;61996;49.910;35.562;2024-01-15T00:24:10;97879.28;;;17.36;39.62
73692;BME280;61996;49.910;35.562;2024-01-15T00:27:13;97876.16;;;17.32;39.77
73692;BME280;61996;49.910;35.562;2024-01-15T00:30:16;97881.28;;;17.34;39.05
73692;BME280;61996;49.910;35.562;2024-01-15T00:33:19;97884.59;;;17.36;39.46
73692;BME280;61996;49.910;35.562;2024-01-15T00:36:26;97877.25;;;17.38;38.08
73692;BME280;61996;49.910;35.562;2024-01-15T00:39:30;97882.09;;;17.34;39.17
73692;BME280;61996;49.910;35.562;2024-01-15T00:42:33;97877.13;;;17.39;38.79
73692;BME280;61996;49.910;35.562;2024-01-15T00:45:36;97876.44;;;17.37;38.30
73692;BME280;61996;49.910;35.562;2024-01-15T00:48:39;97883.06;;;17.41;38.52
73692;BME280;61996;49.910;35.562;2024-01-15T00:51:42;97885.72;;;17.41;39.38
73692;BME280;61996;49.910;35.562;2024-01-15T00:54:46;97883.25;;;17.40;38.02
73692;BME280;61996;49.910;35.562;2024-01-15T00:57:49;97891.91;;;17.34;39.02
73692;BME280;61996;49.910;35.562;2024-01-15T01:00:52;97880.31;;;17.26;38.70
73692;BME280;61996;49.910;35.562;2024-01-15T01:03:56;97881.47;;;17.24;38.33
73692;BME280;61996;49.910;35.562;2024-01-15T01:06:59;97870.69;;;17.17;37.99
73692;BME280;61996;49.910;35.562;2024-01-15T01:10:04;97880.00;;;17.13;37.96
73692;BME280;61996;49.910;35.562;2024-01-15T01:13:08;97873.72;;;17.06;38.33
73692;BME280;61996;49.910;35.562;2024-01-15T01:16:10;97878.38;;;17.04;38.33
73692;BME280;61996;49.910;35.562;2024-01-15T01:19:14;97885.19;;;16.98;38.33
73692;BME280;61996;49.910;35.562;2024-01-15T01:22:18;97880.88;;;16.97;38.37
73692;BME280;61996;49.910;35.562;2024-01-15T01:25:22;97886.88;;;16.91;38.42
73692;BME280;61996;49.910;35.562;2024-01-15T01:28:25;97889.19;;;16.86;38.35
73692;BME280;61996;49.910;35.562;2024-01-15T01:31:28;97891.34;;;16.83;38.53
73692;BME280;61996;49.910;35.562;2024-01-15T01:34:32;97892.03;;;16.77;38.58
73692;BME280;61996;49.910;35.562;2024-01-15T01:37:36;97889.88;;;16.72;38.45
73692;BME280;61996;49.910;35.562;2024-01-15T01:40:41;97886.03;;;16.75;38.37
73692;BME280;61996;49.910;35.562;2024-01-15T01:43:44;97879.25;;;16.72;38.36
73692;BME280;61996;49.910;35.562;2024-01-15T01:46:47;97886.72;;;16.77;38.29
73692;BME280;61996;49.910;35.562;2024-01-15T01:49:50;97884.06;;;16.77;38.19
73692;BME280;61996;49.910;35.562;2024-01-15T01:52:53;97883.72;;;16.63;38.51
73692;BME280;61996;49.910;35.562;2024-01-15T01:55:57;97880.22;;;16.55;38.21
73692;BME280;61996;49.910;35.562;2024-01-15T01:59:01;97871.94;;;16.50;38.34
73692;BME280;61996;49.910;35.562;2024-01-15T02:02:04;97885.84;;;16.52;38.58
73692;BME280;61996;49.910;35.562;2024-01-15T02:05:07;97896.13;;;16.47;38.55
73692;BME280;61996;49.910;35.562;2024-01-15T02:08:11;97894.97;;;16.41;38.77
73692;BME280;61996;49.910;35.562;2024-01-15T02:11:15;97886.34;;;16.39;38.97
73692;BME280;61996;49.910;35.562;2024-01-15T02:14:18;97869.44;;;16.32;38.75
73692;BME280;61996;49.910;35.562;2024-01-15T02:17:21;97873.09;;;16.31;38.92
73692;BME280;61996;49.910;35.562;2024-01-15T02:20:24;97863.47;;;16.22;38.92
73692;BME280;61996;49.910;35.562;2024-01-15T02:23:28;97867.94;;;16.21;38.77
73692;BME280;61996;49.910;35.562;2024-01-15T02:26:31;97871.25;;;16.23;39.01
73692;BME280;61996;49.910;35.562;2024-01-15T02:29:37;97878.69;;;16.20;38.98
73692;BME280;61996;49.910;35.562;2024-01-15T02:32:40;97870.09;;;16.17;38.81
73692;BME280;61996;49.910;35.562;2024-01-15T02:35:44;97871.44;;;16.13;38.98
73692;BME280;61996;49.910;35.562;2024-01-15T02:38:49;97871.09;;;16.08;38.97
73692;BME280;61996;49.910;35.562;2024-01-15T02:41:52;97872.22;;;16.06;38.94
73692;BME280;61996;49.910;35.562;2024-01-15T02:44:57;97880.16;;;16.06;38.99
73692;BME280;61996;49.910;35.562;2024-01-15T02:48:00;97880.50;;;16.03;38.87
73692;BME280;61996;49.910;35.562;2024-01-15T02:51:03;97879.84;;;16.01;39.05
73692;BME280;61996;49.910;35.562;2024-01-15T02:54:07;97881.50;;;15.94;39.21
73692;BME280;61996;49.910;35.562;2024-01-15T02:57:10;97888.63;;;15.93;39.26
73692;BME280;61996;49.910;35.562;2024-01-15T03:00:14;97893.41;;;15.89;39.01
73692;BME280;61996;49.910;35.562;2024-01-15T03:03:17;97890.91;;;15.88;39.15
73692;BME280;61996;49.910;35.562;2024-01-15T03:06:20;97888.44;;;15.86;39.21
73692;BME280;61996;49.910;35.562;2024-01-15T03:09:24;97883.28;;;15.85;39.10
73692;BME280;61996;49.910;35.562;2024-01-15T03:12:27;97895.88;;;15.83;39.29
73692;BME280;61996;49.910;35.562;2024-01-15T03:15:30;97897.41;;;15.94;39.06
73692;BME280;61996;49.910;35.562;2024-01-15T03:18:33;97899.56;;;15.98;39.23
73692;BME280;61996;49.910;35.562;2024-01-15T03:21:36;97898.59;;;16.07;39.33
73692;BME280;61996;49.910;35.562;2024-01-15T03:24:41;97898.91;;;16.12;38.74
73692;BME280;61996;49.910;35.562;2024-01-15T03:27:44;97905.75;;;16.23;39.08
73692;BME280;61996;49.910;35.562;2024-01-15T03:30:46;97898.13;;;16.36;38.43
73692;BME280;61996;49.910;35.562;2024-01-15T03:33:49;97897.13;;;16.45;38.44
73692;BME280;61996;49.910;35.562;2024-01-15T03:36:52;97895.31;;;16.54;38.32
73692;BME280;61996;49.910;35.562;2024-01-15T03:39:57;97900.28;;;16.57;38.19
73692;BME280;61996;49.910;35.562;2024-01-15T03:43:00;97902.78;;;16.67;38.03
73692;BME280;61996;49.910;35.562;2024-01-15T03:46:03;97918.91;;;16.74;37.86
73692;BME280;61996;49.910;35.562;2024-01-15T03:49:07;97918.72;;;16.75;38.03
73692;BME280;61996;49.910;35.562;2024-01-15T03:52:10;97920.06;;;16.79;37.75
73692;BME280;61996;49.910;35.562;2024-01-15T03:55:16;97918.75;;;16.83;38.25
73692;BME280;61996;49.910;35.562;2024-01-15T03:58:19;97922.53;;;16.89;37.67
73692;BME280;61996;49.910;35.562;2024-01-15T04:01:22;97912.09;;;16.87;37.72
73692;BME280;61996;49.910;35.562;2024-01-15T04:04:24;97912.22;;;17.02;37.65
73692;BME280;61996;49.910;35.562;2024-01-15T04:07:28;97942.28;;;16.94;37.81
73692;BME280;61996;49.910;35.562;2024-01-15T04:10:32;97922.19;;;17.00;37.78
73692;BME280;61996;49.910;35.562;2024-01-15T04:13:35;97930.34;;;16.98;38.10
73692;BME280;61996;49.910;35.562;2024-01-15T04:16:41;97934.97;;;17.05;37.98
73692;BME280;61996;49.910;35.562;2024-01-15T04:19:44;97934.97;;;17.05;37.75
73692;BME280;61996;49.910;35.562;2024-01-15T04:22:47;97935.81;;;17.05;37.56
73692;BME280;61996;49.910;35.562;2024-01-15T04:25:51;97945.75;;;17.11;38.02
73692;BME280;61996;49.910;35.562;2024-01-15T04:28:54;97938.91;;;17.17;37.86
73692;BME280;61996;49.910;35.562;2024-01-15T04:31:57;97931.13;;;17.15;37.69
73692;BME280;61996;49.910;35.562;2024-01-15T04:35:00;97936.78;;;17.20;37.75
73692;BME280;61996;49.910;35.562;2024-01-15T04:38:03;97955.53;;;17.19;37.84
73692;BME280;61996;49.910;35.562;2024-01-15T04:41:07;97951.06;;;17.19;37.45
73692;BME280;61996;49.910;35.562;2024-01-15T04:44:12;97948.69;;;17.24;37.68
73692;BME280;61996;49.910;35.562;2024-01-15T04:47:15;97952.03;;;17.26;37.59
73692;BME280;61996;49.910;35.562;2024-01-15T04:50:18;97950.53;;;17.24;37.68
73692;BME280;61996;49.910;35.562;2024-01-15T04:53:21;97962.13;;;17.31;37.53
73692;BME280;61996;49.910;35.562;2024-01-15T04:56:25;97959.31;;;17.24;37.68
73692;BME280;61996;49.910;35.562;2024-01-15T04:59:28;97970.47;;;17.20;37.46
73692;BME280;61996;49.910;35.562;2024-01-15T05:02:31;97966.47;;;17.16;37.42
73692;BME280;61996;49.910;35.562;2024-01-15T05:05:33;97968.97;;;17.09;37.44
73692;BME280;61996;49.910;35.562;2024-01-15T05:08:36;97970.47;;;17.04;37.67
73692;BME280;61996;49.910;35.562;2024-01-15T05:11:40;97979.78;;;16.99;37.89
73692;BME280;61996;49.910;35.562;2024-01-15T05:14:43;97978.16;;;16.90;37.73
73692;BME280;61996;49.910;35.562;2024-01-15T05:17:46;97985.59;;;16.87;37.71
73692;BME280;61996;49.910;35.562;2024-01-15T05:20:49;97977.47;;;16.80;38.04
73692;BME280;61996;49.910;35.562;2024-01-15T05:23:54;97989.75;;;16.73;37.93
73692;BME280;61996;49.910;35.562;2024-01-15T05:26:58;97992.34;;;16.65;38.18
73692;BME280;61996;49.910;35.562;2024-01-15T05:30:01;97995.19;;;16.55;38.23
73692;BME280;61996;49.910;35.562;2024-01-15T05:33:04;98001.28;;;16.48;38.21
73692;BME280;61996;49.910;35.562;2024-01-15T05:36:09;98000.59;;;16.37;38.49
73692;BME280;61996;49.910;35.562;2024-01-15T05:39:13;98010.56;;;16.35;38.57
73692;BME280;61996;49.910;35.562;2024-01-15T05:42:18;98010.03;;;16.32;38.39
73692;BME280;61996;49.910;35.562;2024-01-15T05:45:21;98018.16;;;16.30;38.53
73692;BME280;61996;49.910;35.562;2024-01-15T05:48:24;98024.13;;;16.32;38.44
73692;BME280;61996;49.910;35.562;2024-01-15T05:51:27;98020.28;;;16.27;38.75
73692;BME280;61996;49.910;35.562;2024-01-15T05:54:30;98030.56;;;16.22;38.63
73692;BME280;61996;49.910;35.562;2024-01-15T05:57:34;98020.09;;;16.20;38.62
73692;BME280;61996;49.910;35.562;2024-01-15T06:00:37;98010.00;;;16.15;38.69
73692;BME280;61996;49.910;35.562;2024-01-15T06:03:40;98021.06;;;16.11;39.04
73692;BME280;61996;49.910;35.562;2024-01-15T06:06:43;98019.75;;;16.07;38.58
73692;BME280;61996;49.910;35.562;2024-01-15T06:09:46;98021.69;;;16.05;38.82
73692;BME280;61996;49.910;35.562;2024-01-15T06:12:51;98025.81;;;15.99;38.91
73692;BME280;61996;49.910;35.562;2024-01-15T06:15:54;98022.34;;;15.99;38.99
73692;BME280;61996;49.910;35.562;2024-01-15T06:18:56;98030.28;;;15.99;39.03
73692;BME280;61996;49.910;35.562;2024-01-15T06:21:59;98030.78;;;15.94;38.99
73692;BME280;61996;49.910;35.562;2024-01-15T06:25:03;98034.06;;;15.88;38.84
73692;BME280;61996;49.910;35.562;2024-01-15T06:28:08;98023.78;;;15.85;38.92
73692;BME280;61996;49.910;35.562;2024-01-15T06:31:11;98026.75;;;15.82;38.95
73692;BME280;61996;49.910;35.562;2024-01-15T06:34:14;98028.03;;;15.78;39.04
73692;BME280;61996;49.910;35.562;2024-01-15T06:37:18;98022.25;;;15.74;39.08
73692;BME280;61996;49.910;35.562;2024-01-15T06:40:21;98024.88;;;15.74;39.16
73692;BME280;61996;49.910;35.562;2024-01-15T06:43:25;98026.88;;;15.72;39.16
73692;BME280;61996;49.910;35.562;2024-01-15T06:46:28;98025.69;;;15.67;39.23
73692;BME280;61996;49.910;35.562;2024-01-15T06:49:31;98030.16;;;15.66;39.18
73692;BME280;61996;49.910;35.562;2024-01-15T06:52:34;98027.44;;;15.58;39.35
73692;BME280;61996;49.910;35.562;2024-01-15T06:55:37;98039.81;;;15.57;39.38
73692;BME280;61996;49.910;35.562;2024-01-15T06:58:41;98049.75;;;15.55;39.18
73692;BME280;61996;49.910;35.562;2024-01-15T07:01:44;98048.25;;;15.53;39.36
73692;BME280;61996;49.910;35.562;2024-01-15T07:04:47;98050.06;;;15.52;39.28
73692;BME280;61996;49.910;35.562;2024-01-15T07:07:50;98050.06;;;15.52;39.35
73692;BME280;61996;49.910;35.562;2024-01-15T07:10:53;98055.31;;;15.44;39.34
73692;BME280;61996;49.910;35.562;2024-01-15T07:13:57;98061.44;;;15.45;39.42
73692;BME280;61996;49.910;35.562;2024-01-15T07:16:59;98065.13;;;15.52;39.16
73692;BME280;61996;49.910;35.562;2024-01-15T07:20:03;98070.56;;;15.50;39.45
73692;BME280;61996;49.910;35.562;2024-01-15T07:23:05;98066.53;;;15.38;39.54
73692;BME280;61996;49.910;35.562;2024-01-15T07:26:09;98062.91;;;15.39;39.37
73692;BME280;61996;49.910;35.562;2024-01-15T07:29:13;98059.88;;;15.34;39.50
73692;BME280;61996;49.910;35.562;2024-01-15T07:32:16;98068.47;;;15.36;39.56
73692;BME280;61996;49.910;35.562;2024-01-15T07:35:19;98064.00;;;15.36;39.59
73692;BME280;61996;49.910;35.562;2024-01-15T07:38:21;98066.25;;;15.23;39.68
73692;BME280;61996;49.910;35.562;2024-01-15T07:41:24;98058.97;;;15.25;39.69
73692;BME280;61996;49.910;35.562;2024-01-15T07:44:28;98070.84;;;15.21;39.56
73692;BME280;61996;49.910;35.562;2024-01-15T07:47:31;98065.56;;;15.21;39.73
73692;BME280;61996;49.910;35.562;2024-01-15T07:50:34;98072.59;;;15.30;39.49
73692;BME280;61996;49.910;35.562;2024-01-15T07:53:37;98071.91;;;15.28;39.52
73692;BME280;61996;49.910;35.562;2024-01-15T07:56:55;98082.00;;;15.25;39.45
73692;BME280;61996;49.910;35.562;2024-01-15T08:00:00;98096.81;;;15.18;39.57
73692;BME280;61996;49.910;35.562;2024-01-15T08:03:03;98096.66;;;15.19;39.64
73692;BME280;61996;49.910;35.562;2024-01-15T08:06:06;98092.66;;;15.15;39.65
73692;BME280;61996;49.910;35.562;2024-01-15T08:09:11;98106.72;;;15.16;39.72
73692;BME280;61996;49.910;35.562;2024-01-15T08:12:15;98098.25;;;15.12;39.65
73692;BME280;61996;49.910;35.562;2024-01-15T08:15:20;98089.50;;;15.12;39.73
73692;BME280;61996;49.910;35.562;2024-01-15T08:18:23;98093.97;;;15.11;39.75
73692;BME280;61996;49.910;35.562;2024-01-15T08:21:27;98092.59;;;15.07;39.81
73692;BME280;61996;49.910;35.562;2024-01-15T08:24:31;98093.34;;;15.17;39.58
73692;BME280;61996;49.910;35.562;2024-01-15T08:27:34;98095.75;;;15.28;39.25
73692;BME280;61996;49.910;35.562;2024-01-15T08:30:38;98090.81;;;15.33;39.27
73692;BME280;61996;49.910;35.562;2024-01-15T08:33:41;98080.22;;;15.33;39.12
73692;BME280;61996;49.910;35.562;2024-01-15T08:36:44;98086.25;;;15.44;39.06
73692;BME280;61996;49.910;35.562;2024-01-15T08:39:47;98090.69;;;15.61;38.75
73692;BME280;61996;49.910;35.562;2024-01-15T08:42:52;98086.84;;;15.73;38.81
73692;BME280;61996;49.910;35.562;2024-01-15T08:45:57;98087.56;;;15.83;38.20
73692;BME280;61996;49.910;35.562;2024-01-15T08:49:09;98077.31;;;15.88;38.44
73692;BME280;61996;49.910;35.562;2024-01-15T08:52:13;98067.91;;;15.94;38.36
73692;BME280;61996;49.910;35.562;2024-01-15T08:55:16;98067.78;;;16.04;38.09
73692;BME280;61996;49.910;35.562;2024-01-15T08:58:20;98057.69;;;16.07;38.15
73692;BME280;61996;49.910;35.562;2024-01-15T09:01:24;98068.97;;;16.09;38.34
73692;BME280;61996;49.910;35.562;2024-01-15T09:04:27;98051.44;;;16.16;38.11
73692;BME280;61996;49.910;35.562;2024-01-15T09:07:30;98051.09;;;16.20;38.20
73692;BME280;61996;49.910;35.562;2024-01-15T09:10:33;98052.13;;;16.27;38.04
73692;BME280;61996;49.910;35.562;2024-01-15T09:13:36;98051.81;;;16.30;37.92
73692;BME280;61996;49.910;35.562;2024-01-15T09:16:40;98055.28;;;16.30;37.89
73692;BME280;61996;49.910;35.562;2024-01-15T09:19:43;98052.16;;;16.35;37.92
73692;BME280;61996;49.910;35.562;2024-01-15T09:22:47;98059.47;;;16.41;37.95
73692;BME280;61996;49.910;35.562;2024-01-15T09:25:50;98059.47;;;16.41;37.71
73692;BME280;61996;49.910;35.562;2024-01-15T09:28:54;98051.19;;;16.44;37.84
73692;BME280;61996;49.910;35.562;2024-01-15T09:31:58;98051.19;;;16.44;37.87
73692;BME280;61996;49.910;35.562;2024-01-15T09:35:01;98060.66;;;16.47;37.80
73692;BME280;61996;49.910;35.562;2024-01-15T09:38:04;98060.16;;;16.51;37.83
73692;BME280;61996;49.910;35.562;2024-01-15T09:41:07;98062.66;;;16.53;37.75
73692;BME280;61996;49.910;35.562;2024-01-15T09:44:10;98061.00;;;16.52;37.82
73692;BME280;61996;49.910;35.562;2024-01-15T09:47:14;98070.31;;;16.56;37.82
73692;BME280;61996;49.910;35.562;2024-01-15T09:50:18;98069.97;;;16.59;37.41
73692;BME280;61996;49.910;35.562;2024-01-15T09:53:22;98072.97;;;16.64;37.69
73692;BME280;61996;49.910;35.562;2024-01-15T09:56:25;98066.66;;;16.65;37.64
73692;BME280;61996;49.910;35.562;2024-01-15T09:59:28;98067.66;;;16.64;37.78
73692;BME280;61996;49.910;35.562;2024-01-15T10:02:32;98068.34;;;16.66;37.57
73692;BME280;61996;49.910;35.562;2024-01-15T10:05:36;98070.69;;;16.69;37.53
73692;BME280;61996;49.910;35.562;2024-01-15T10:08:39;98082.66;;;16.73;37.60
73692;BME280;61996;49.910;35.562;2024-01-15T10:11:42;98072.84;;;16.74;37.47
73692;BME280;61996;49.910;35.562;2024-01-15T10:14:45;98075.50;;;16.74;37.59
73692;BME280;61996;49.910;35.562;2024-01-15T10:17:49;98070.03;;;16.75;37.61
73692;BME280;61996;49.910;35.562;2024-01-15T10:20:53;98071.22;;;16.81;37.51
73692;BME280;61996;49.910;35.562;2024-01-15T10:23:55;98072.03;;;16.81;37.46
73692;BME280;61996;49.910;35.562;2024-01-15T10:27:04;98081.53;;;16.84;37.36
73692;BME280;61996;49.910;35.562;2024-01-15T10:30:08;98092.97;;;16.84;37.39
73692;BME280;61996;49.910;35.562;2024-01-15T10:33:12;98074.22;;;16.86;37.41
73692;BME280;61996;49.910;35.562;2024-01-15T10:36:17;98060.75;;;16.87;37.46
73692;BME280;61996;49.910;35.562;2024-01-15T10:39:20;98065.75;;;16.90;37.23
73692;BME280;61996;49.910;35.562;2024-01-15T10:42:23;98063.94;;;16.91;37.58
73692;BME280;61996;49.910;35.562;2024-01-15T10:45:26;98067.91;;;16.95;37.40
73692;BME280;61996;49.910;35.562;2024-01-15T10:48:31;98065.75;;;16.90;37.57
73692;BME280;61996;49.910;35.562;2024-01-15T10:51:36;98059.94;;;16.95;37.56
73692;BME280;61996;49.910;35.562;2024-01-15T10:54:39;98053.63;;;16.96;37.18
73692;BME280;61996;49.910;35.562;2024-01-15T10:57:42;98060.78;;;16.95;37.50
73692;BME280;61996;49.910;35.562;2024-01-15T11:00:48;98059.78;;;16.96;37.45
73692;BME280;61996;49.910;35.562;2024-01-15T11:03:53;98061.28;;;16.99;37.44
73692;BME280;61996;49.910;35.562;2024-01-15T11:06:59;98065.78;;;16.98;37.41
73692;BME280;61996;49.910;35.562;2024-01-15T11:10:03;98061.13;;;17.01;37.29
73692;BME280;61996;49.910;35.562;2024-01-15T11:13:08;98061.94;;;17.01;37.40
73692;BME280;61996;49.910;35.562;2024-01-15T11:16:11;98069.75;;;17.03;37.26
73692;BME280;61996;49.910;35.562;2024-01-15T11:19:16;98071.91;;;17.07;37.27
73692;BME280;61996;49.910;35.562;2024-01-15T11:25:59;98061.28;;;17.07;37.40
73692;BME280;61996;49.910;35.562;2024-01-15T11:29:02;98061.81;;;17.11;37.38
73692;BME280;61996;49.910;35.562;2024-01-15T11:32:06;98070.59;;;17.11;37.19
73692;BME280;61996;49.910;35.562;2024-01-15T11:38:27;98062.13;;;17.16;37.34
73692;BME280;61996;49.910;35.562;2024-01-15T11:41:31;98064.94;;;17.14;37.12
73692;BME280;61996;49.910;35.562;2024-01-15T11:44:34;98064.59;;;17.17;37.26
73692;BME280;61996;49.910;35.562;2024-01-15T11:50:59;98068.94;;;17.18;37.13
73692;BME280;61996;49.910;35.562;2024-01-15T11:54:05;98066.28;;;17.18;37.24
73692;BME280;61996;49.910;35.562;2024-01-15T11:57:20;98059.28;;;17.17;37.24
73692;BME280;61996;49.910;35.562;2024-01-15T12:00:25;98060.81;;;17.20;37.29
73692;BME280;61996;49.910;35.562;2024-01-15T12:03:27;98054.47;;;17.21;36.99
73692;BME280;61996;49.910;35.562;2024-01-15T12:06:30;98056.78;;;17.24;36.92
73692;BME280;61996;49.910;35.562;2024-01-15T12:09:35;98058.47;;;17.25;37.08
73692;BME280;61996;49.910;35.562;2024-01-15T12:12:48;98044.19;;;17.26;37.15
73692;BME280;61996;49.910;35.562;2024-01-15T12:15:55;98049.50;;;17.26;37.10
73692;BME280;61996;49.910;35.562;2024-01-15T12:18:58;98053.81;;;17.19;37.23
73692;BME280;61996;49.910;35.562;2024-01-15T12:22:02;98049.84;;;17.15;37.40
73692;BME280;61996;49.910;35.562;2024-01-15T12:25:07;98043.34;;;17.09;37.30
73692;BME280;61996;49.910;35.562;2024-01-15T12:28:09;98041.53;;;17.02;37.26
73692;BME280;61996;49.910;35.562;2024-01-15T12:31:12;98037.22;;;17.01;37.48
73692;BME280;61996;49.910;35.562;2024-01-15T12:34:17;98033.38;;;16.95;37.56
73692;BME280;61996;49.910;35.562;2024-01-15T12:37:20;98039.03;;;16.84;37.79
73692;BME280;61996;49.910;35.562;2024-01-15T12:40:24;98046.66;;;16.79;37.94
73692;BME280;61996;49.910;35.562;2024-01-15T12:43:27;98048.78;;;16.75;37.78
73692;BME280;61996;49.910;35.562;2024-01-15T12:46:30;98041.78;;;16.66;38.00
73692;BME280;61996;49.910;35.562;2024-01-15T12:49:33;98048.75;;;16.59;38.35
73692;BME280;61996;49.910;35.562;2024-01-15T12:52:40;98057.34;;;16.53;38.28
73692;BME280;61996;49.910;35.562;2024-01-15T12:55:44;98047.38;;;16.47;38.38
73692;BME280;61996;49.910;35.562;2024-01-15T12:58:47;98060.66;;;16.47;38.44
73692;BME280;61996;49.910;35.562;2024-01-15T13:01:50;98056.50;;;16.44;38.40
73692;BME280;61996;49.910;35.562;2024-01-15T13:04:53;98055.69;;;16.43;38.37
73692;BME280;61996;49.910;35.562;2024-01-15T13:07:57;98049.38;;;16.44;38.24
73692;BME280;61996;49.910;35.562;2024-01-15T13:11:02;98050.03;;;16.55;38.06
73692;BME280;61996;49.910;35.562;2024-01-15T13:14:07;98055.72;;;16.68;38.12
73692;BME280;61996;49.910;35.562;2024-01-15T13:17:10;98052.28;;;16.76;37.79
73692;BME280;61996;49.910;35.562;2024-01-15T13:20:13;98067.25;;;16.85;37.48
73692;BME280;61996;49.910;35.562;2024-01-15T13:23:16;98061.13;;;16.92;37.49
73692;BME280;61996;49.910;35.562;2024-01-15T13:29:22;98056.81;;;17.32;37.20
73692;BME280;61996;49.910;35.562;2024-01-15T13:32:25;98059.63;;;17.14;37.40
73692;BME280;61996;49.910;35.562;2024-01-15T13:35:28;98054.16;;;17.08;37.63
73692;BME280;61996;49.910;35.562;2024-01-15T13:38:31;98055.63;;;17.10;37.54
73692;BME280;61996;49.910;35.562;2024-01-15T13:41:37;98046.69;;;17.11;37.63
73692;BME280;61996;49.910;35.562;2024-01-15T13:44:42;98044.69;;;17.30;37.37
73692;BME280;61996;49.910;35.562;2024-01-15T13:47:45;98042.53;;;17.25;37.48
73692;BME280;61996;49.910;35.562;2024-01-15T13:50:47;98046.50;;;17.21;37.88
73692;BME280;61996;49.910;35.562;2024-01-15T13:57:02;98047.50;;;17.28;37.54
73692;BME280;61996;49.910;35.562;2024-01-15T14:00:07;98032.75;;;17.25;37.48
73692;BME280;61996;49.910;35.562;2024-01-15T14:03:14;98027.75;;;17.22;37.74
73692;BME280;61996;49.910;35.562;2024-01-15T14:06:17;98029.91;;;17.27;37.85
73692;BME280;61996;49.910;35.562;2024-01-15T14:09:20;98032.22;;;17.30;37.61
73692;BME280;61996;49.910;35.562;2024-01-15T14:12:23;98032.22;;;17.30;37.61
73692;BME280;61996;49.910;35.562;2024-01-15T14:15:29;98037.38;;;17.32;37.73
73692;BME280;61996;49.910;35.562;2024-01-15T14:18:32;98036.53;;;17.31;37.83
73692;BME280;61996;49.910;35.562;2024-01-15T14:21:36;98038.53;;;17.37;37.82
73692;BME280;61996;49.910;35.562;2024-01-15T14:24:38;98041.69;;;17.41;37.66
73692;BME280;61996;49.910;35.562;2024-01-15T14:27:41;98032.38;;;17.37;37.33
73692;BME280;61996;49.910;35.562;2024-01-15T14:30:46;98039.03;;;17.41;37.31
73692;BME280;61996;49.910;35.562;2024-01-15T14:33:49;98036.84;;;17.44;37.38
73692;BME280;61996;49.910;35.562;2024-01-15T14:36:52;98035.72;;;17.47;37.92
73692;BME280;61996;49.910;35.562;2024-01-15T14:39:56;98040.16;;;17.63;37.99
73692;BME280;61996;49.910;35.562;2024-01-15T14:42:59;98031.22;;;17.47;38.58
73692;BME280;61996;49.910;35.562;2024-01-15T14:46:04;98038.69;;;17.44;38.68
73692;BME280;61996;49.910;35.562;2024-01-15T14:49:07;98031.53;;;17.44;38.56
73692;BME280;61996;49.910;35.562;2024-01-15T14:52:10;98022.59;;;17.45;38.94
73692;BME280;61996;49.910;35.562;2024-01-15T14:55:13;98015.09;;;17.49;38.47
73692;BME280;61996;49.910;35.562;2024-01-15T14:58:17;98013.44;;;17.48;38.33
73692;BME280;61996;49.910;35.562;2024-01-15T15:01:21;98014.28;;;17.48;38.39
73692;BME280;61996;49.910;35.562;2024-01-15T15:04:27;98013.91;;;17.51;38.86
73692;BME280;61996;49.910;35.562;2024-01-15T15:07:31;98003.75;;;17.79;37.76
73692;BME280;61996;49.910;35.562;2024-01-15T15:10:37;98002.75;;;17.64;38.32
73692;BME280;61996;49.910;35.562;2024-01-15T15:13:41;98003.44;;;17.58;38.14
73692;BME280;61996;49.910;35.562;2024-01-15T15:16:48;98001.97;;;17.56;38.52
73692;BME280;61996;49.910;35.562;2024-01-15T15:19:51;98011.88;;;17.70;37.93
73692;BME280;61996;49.910;35.562;2024-01-15T15:22:55;98002.94;;;17.63;37.89
73692;BME280;61996;49.910;35.562;2024-01-15T15:25:58;98005.94;;;17.60;38.14
73692;BME280;61996;49.910;35.562;2024-01-15T15:29:01;97998.13;;;17.58;37.94
73692;BME280;61996;49.910;35.562;2024-01-15T15:32:05;98003.94;;;17.62;38.12
73692;BME280;61996;49.910;35.562;2024-01-15T15:35:08;97998.94;;;17.59;38.14
73692;BME280;61996;49.910;35.562;2024-01-15T15:38:12;98001.28;;;17.62;38.05
73692;BME280;61996;49.910;35.562;2024-01-15T15:41:15;97999.28;;;17.64;38.23
73692;BME280;61996;49.910;35.562;2024-01-15T15:44:18;98001.09;;;17.63;38.12
73692;BME280;61996;49.910;35.562;2024-01-15T15:47:22;98000.63;;;17.60;37.83
73692;BME280;61996;49.910;35.562;2024-01-15T15:50:25;98009.09;;;17.55;38.23
73692;BME280;61996;49.910;35.562;2024-01-15T15:53:31;98008.78;;;17.50;38.24
73692;BME280;61996;49.910;35.562;2024-01-15T15:56:34;98012.09;;;17.44;38.22
73692;BME280;61996;49.910;35.562;2024-01-15T15:59:40;97997.69;;;16.81;36.73
73692;BME280;61996;49.910;35.562;2024-01-15T16:02:44;98002.38;;;17.12;38.26
73692;BME280;61996;49.910;35.562;2024-01-15T16:05:52;98001.69;;;17.18;38.37
73692;BME280;61996;49.910;35.562;2024-01-15T16:08:55;98001.84;;;17.08;38.51
73692;BME280;61996;49.910;35.562;2024-01-15T16:11:58;98000.69;;;17.03;38.59
73692;BME280;61996;49.910;35.562;2024-01-15T16:15:01;97999.56;;;16.97;38.73
73692;BME280;61996;49.910;35.562;2024-01-15T16:18:06;97999.69;;;16.95;38.72